KZZV/ZZV METAR and TAF weather

Enter ICAO airport designator
Station Type Date Time Source
KZZV METAR 2019/08/22 19:53 UTC NOAA

KZZV 221953Z AUTO 28006KT 10SM FEW026 SCT032 27/20 A2996 RMK AO2 SLP137 T02670200


Station Type Date Time Source
KZZV Decoded METAR 2019/08/22 19:53 UTC NOAA

Station name not available
Aug 22, 2019 - 03:53 PM EDT / 2019.08.22 1953 UTC
Wind: from the W (280 degrees) at 7 MPH (6 KT):0
Visibility: 10 mile(s):0
Sky conditions: partly cloudy
Temperature: 80.1 F (26.7 C)
Dew Point: 68.0 F (20.0 C)
Relative Humidity: 66%
Pressure (altimeter): 29.96 in. Hg (1014 hPa)
ob: KZZV 221953Z AUTO 28006KT 10SM FEW026 SCT032 27/20 A2996 RMK AO2 SLP137 T02670200
cycle: 20

Station Type Date Time Source
KZZV TAF 2019/08/22 18:33 UTC NOAA

TAF KZZV 221731Z 2218/2318 28007KT P6SM -SHRA SCT030 BKN050
TEMPO 2218/2222 6SM -SHRA BKN020
FM230200 36003KT P6SM VCSH BKN035
FM230600 VRB03KT 6SM BR BKN250
FM231300 02006KT P6SM SCT250

Example: see airport list